sensor_id;sensor_type;location;lat;lon;timestamp;P1;durP1;ratioP1;P2;durP2;ratioP2
67869;SDS011;54673;52.262;6.830;2023-09-18T00:00:13;2.70;;;2.50;;
67869;SDS011;54673;52.262;6.830;2023-09-18T00:02:39;3.60;;;2.93;;
67869;SDS011;54673;52.262;6.830;2023-09-18T00:05:05;3.90;;;2.70;;
67869;SDS011;54673;52.262;6.830;2023-09-18T00:07:31;5.65;;;2.72;;
67869;SDS011;54673;52.262;6.830;2023-09-18T00:09:56;3.30;;;2.70;;
67869;SDS011;54673;52.262;6.830;2023-09-18T00:12:22;3.30;;;3.00;;
67869;SDS011;54673;52.262;6.830;2023-09-18T00:14:48;3.80;;;2.97;;
67869;SDS011;54673;52.262;6.830;2023-09-18T00:17:14;3.27;;;2.97;;
67869;SDS011;54673;52.262;6.830;2023-09-18T00:19:41;4.25;;;3.38;;
67869;SDS011;54673;52.262;6.830;2023-09-18T00:22:07;6.15;;;2.97;;
67869;SDS011;54673;52.262;6.830;2023-09-18T00:24:33;3.50;;;3.20;;
67869;SDS011;54673;52.262;6.830;2023-09-18T00:26:59;3.60;;;3.13;;
67869;SDS011;54673;52.262;6.830;2023-09-18T00:29:24;4.70;;;3.10;;
67869;SDS011;54673;52.262;6.830;2023-09-18T00:31:50;4.77;;;3.20;;
67869;SDS011;54673;52.262;6.830;2023-09-18T00:34:15;3.72;;;3.28;;
67869;SDS011;54673;52.262;6.830;2023-09-18T00:36:41;5.03;;;3.00;;
67869;SDS011;54673;52.262;6.830;2023-09-18T00:39:06;3.93;;;3.10;;
67869;SDS011;54673;52.262;6.830;2023-09-18T00:41:33;5.65;;;2.95;;
67869;SDS011;54673;52.262;6.830;2023-09-18T00:43:58;4.07;;;3.10;;
67869;SDS011;54673;52.262;6.830;2023-09-18T00:46:24;4.03;;;3.05;;
67869;SDS011;54673;52.262;6.830;2023-09-18T00:48:50;5.50;;;3.50;;
67869;SDS011;54673;52.262;6.830;2023-09-18T00:51:16;6.33;;;3.80;;
67869;SDS011;54673;52.262;6.830;2023-09-18T00:53:43;3.58;;;3.28;;
67869;SDS011;54673;52.262;6.830;2023-09-18T00:56:10;4.47;;;3.70;;
67869;SDS011;54673;52.262;6.830;2023-09-18T00:58:36;3.45;;;3.15;;
67869;SDS011;54673;52.262;6.830;2023-09-18T01:01:03;4.20;;;3.67;;
67869;SDS011;54673;52.262;6.830;2023-09-18T01:03:29;3.65;;;3.30;;
67869;SDS011;54673;52.262;6.830;2023-09-18T01:05:56;5.15;;;3.60;;
67869;SDS011;54673;52.262;6.830;2023-09-18T01:08:22;4.07;;;3.57;;
67869;SDS011;54673;52.262;6.830;2023-09-18T01:11:04;4.57;;;3.55;;
67869;SDS011;54673;52.262;6.830;2023-09-18T01:13:41;6.03;;;3.67;;
67869;SDS011;54673;52.262;6.830;2023-09-18T01:16:16;5.03;;;3.50;;
67869;SDS011;54673;52.262;6.830;2023-09-18T01:18:49;8.82;;;6.43;;
67869;SDS011;54673;52.262;6.830;2023-09-18T01:21:15;4.50;;;3.83;;
67869;SDS011;54673;52.262;6.830;2023-09-18T01:23:41;9.07;;;5.90;;
67869;SDS011;54673;52.262;6.830;2023-09-18T01:26:07;10.70;;;7.00;;
67869;SDS011;54673;52.262;6.830;2023-09-18T01:28:33;7.25;;;4.32;;
67869;SDS011;54673;52.262;6.830;2023-09-18T01:30:58;4.83;;;4.20;;
67869;SDS011;54673;52.262;6.830;2023-09-18T01:33:24;7.60;;;4.90;;
67869;SDS011;54673;52.262;6.830;2023-09-18T01:35:52;6.03;;;3.77;;
67869;SDS011;54673;52.262;6.830;2023-09-18T01:38:20;5.30;;;3.80;;
67869;SDS011;54673;52.262;6.830;2023-09-18T01:40:48;7.80;;;5.32;;
67869;SDS011;54673;52.262;6.830;2023-09-18T01:43:13;14.30;;;7.87;;
67869;SDS011;54673;52.262;6.830;2023-09-18T01:45:39;8.93;;;5.43;;
67869;SDS011;54673;52.262;6.830;2023-09-18T01:48:05;11.77;;;8.77;;
67869;SDS011;54673;52.262;6.830;2023-09-18T01:50:31;11.95;;;8.25;;
67869;SDS011;54673;52.262;6.830;2023-09-18T01:52:58;15.87;;;9.70;;
67869;SDS011;54673;52.262;6.830;2023-09-18T01:55:24;11.52;;;8.60;;
67869;SDS011;54673;52.262;6.830;2023-09-18T01:57:49;17.37;;;8.00;;
67869;SDS011;54673;52.262;6.830;2023-09-18T02:00:15;12.55;;;8.15;;
67869;SDS011;54673;52.262;6.830;2023-09-18T02:02:41;11.83;;;6.40;;
67869;SDS011;54673;52.262;6.830;2023-09-18T02:05:06;7.80;;;5.80;;
67869;SDS011;54673;52.262;6.830;2023-09-18T02:07:32;13.30;;;8.33;;
67869;SDS011;54673;52.262;6.830;2023-09-18T02:09:57;13.75;;;7.00;;
67869;SDS011;54673;52.262;6.830;2023-09-18T02:12:23;16.23;;;9.43;;
67869;SDS011;54673;52.262;6.830;2023-09-18T02:14:49;12.10;;;7.53;;
67869;SDS011;54673;52.262;6.830;2023-09-18T02:17:14;13.77;;;7.65;;
67869;SDS011;54673;52.262;6.830;2023-09-18T02:19:40;15.17;;;6.17;;
67869;SDS011;54673;52.262;6.830;2023-09-18T02:22:05;13.82;;;7.82;;
67869;SDS011;54673;52.262;6.830;2023-09-18T02:24:31;12.13;;;7.67;;
67869;SDS011;54673;52.262;6.830;2023-09-18T02:26:57;10.55;;;7.03;;
67869;SDS011;54673;52.262;6.830;2023-09-18T02:29:22;13.43;;;7.47;;
67869;SDS011;54673;52.262;6.830;2023-09-18T02:31:48;10.00;;;6.77;;
67869;SDS011;54673;52.262;6.830;2023-09-18T02:34:13;11.07;;;6.27;;
67869;SDS011;54673;52.262;6.830;2023-09-18T02:36:39;8.00;;;5.97;;
67869;SDS011;54673;52.262;6.830;2023-09-18T02:39:04;8.38;;;6.00;;
67869;SDS011;54673;52.262;6.830;2023-09-18T02:41:30;8.83;;;5.30;;
67869;SDS011;54673;52.262;6.830;2023-09-18T02:43:56;14.57;;;6.83;;
67869;SDS011;54673;52.262;6.830;2023-09-18T02:46:21;10.20;;;6.88;;
67869;SDS011;54673;52.262;6.830;2023-09-18T02:48:47;9.20;;;5.80;;
67869;SDS011;54673;52.262;6.830;2023-09-18T02:51:12;11.00;;;6.77;;
67869;SDS011;54673;52.262;6.830;2023-09-18T02:53:38;15.98;;;7.25;;
67869;SDS011;54673;52.262;6.830;2023-09-18T02:56:03;14.43;;;8.37;;
67869;SDS011;54673;52.262;6.830;2023-09-18T02:58:29;10.93;;;6.47;;
67869;SDS011;54673;52.262;6.830;2023-09-18T03:00:55;13.50;;;7.47;;
67869;SDS011;54673;52.262;6.830;2023-09-18T03:03:24;22.13;;;7.13;;
67869;SDS011;54673;52.262;6.830;2023-09-18T03:05:50;10.23;;;6.33;;
67869;SDS011;54673;52.262;6.830;2023-09-18T03:08:16;11.63;;;6.50;;
67869;SDS011;54673;52.262;6.830;2023-09-18T03:10:42;10.85;;;6.32;;
67869;SDS011;54673;52.262;6.830;2023-09-18T03:13:09;8.40;;;5.07;;
67869;SDS011;54673;52.262;6.830;2023-09-18T03:15:36;8.23;;;6.20;;
67869;SDS011;54673;52.262;6.830;2023-09-18T03:18:02;10.90;;;5.90;;
67869;SDS011;54673;52.262;6.830;2023-09-18T03:20:29;11.10;;;6.27;;
67869;SDS011;54673;52.262;6.830;2023-09-18T03:22:59;12.15;;;6.82;;
67869;SDS011;54673;52.262;6.830;2023-09-18T03:25:26;9.38;;;5.18;;
67869;SDS011;54673;52.262;6.830;2023-09-18T03:27:52;15.37;;;6.73;;
67869;SDS011;54673;52.262;6.830;2023-09-18T03:30:19;8.15;;;4.90;;
67869;SDS011;54673;52.262;6.830;2023-09-18T03:32:45;7.63;;;5.47;;
67869;SDS011;54673;52.262;6.830;2023-09-18T03:35:11;9.43;;;5.75;;
67869;SDS011;54673;52.262;6.830;2023-09-18T03:37:46;9.93;;;5.82;;
67869;SDS011;54673;52.262;6.830;2023-09-18T03:40:12;10.10;;;5.17;;
67869;SDS011;54673;52.262;6.830;2023-09-18T03:42:38;10.90;;;5.20;;
67869;SDS011;54673;52.262;6.830;2023-09-18T03:45:06;9.10;;;5.47;;
67869;SDS011;54673;52.262;6.830;2023-09-18T03:47:37;8.98;;;5.32;;
67869;SDS011;54673;52.262;6.830;2023-09-18T03:50:06;9.73;;;5.43;;
67869;SDS011;54673;52.262;6.830;2023-09-18T03:52:32;8.30;;;4.30;;
67869;SDS011;54673;52.262;6.830;2023-09-18T03:54:58;10.00;;;5.30;;
67869;SDS011;54673;52.262;6.830;2023-09-18T03:57:23;6.37;;;4.40;;
67869;SDS011;54673;52.262;6.830;2023-09-18T03:59:49;8.38;;;4.20;;
67869;SDS011;54673;52.262;6.830;2023-09-18T04:02:15;7.40;;;4.80;;
67869;SDS011;54673;52.262;6.830;2023-09-18T04:04:40;6.00;;;4.43;;
67869;SDS011;54673;52.262;6.830;2023-09-18T04:07:06;8.80;;;5.80;;
67869;SDS011;54673;52.262;6.830;2023-09-18T04:09:32;12.53;;;5.93;;
67869;SDS011;54673;52.262;6.830;2023-09-18T04:11:59;9.75;;;5.07;;
67869;SDS011;54673;52.262;6.830;2023-09-18T04:14:25;7.38;;;4.90;;
67869;SDS011;54673;52.262;6.830;2023-09-18T04:16:51;8.63;;;4.30;;
67869;SDS011;54673;52.262;6.830;2023-09-18T04:19:17;9.57;;;5.60;;
67869;SDS011;54673;52.262;6.830;2023-09-18T04:21:42;9.45;;;4.85;;
67869;SDS011;54673;52.262;6.830;2023-09-18T04:24:08;10.97;;;5.10;;
67869;SDS011;54673;52.262;6.830;2023-09-18T04:26:33;12.25;;;5.63;;
67869;SDS011;54673;52.262;6.830;2023-09-18T04:28:59;9.90;;;4.90;;
67869;SDS011;54673;52.262;6.830;2023-09-18T04:31:25;11.23;;;5.03;;
67869;SDS011;54673;52.262;6.830;2023-09-18T04:33:52;15.03;;;5.00;;
67869;SDS011;54673;52.262;6.830;2023-09-18T04:36:18;7.95;;;4.90;;
67869;SDS011;54673;52.262;6.830;2023-09-18T04:38:44;9.13;;;5.30;;
67869;SDS011;54673;52.262;6.830;2023-09-18T04:41:09;8.20;;;4.55;;
67869;SDS011;54673;52.262;6.830;2023-09-18T04:43:39;10.70;;;5.07;;
67869;SDS011;54673;52.262;6.830;2023-09-18T04:46:05;9.27;;;4.67;;
67869;SDS011;54673;52.262;6.830;2023-09-18T04:48:31;10.20;;;5.13;;
67869;SDS011;54673;52.262;6.830;2023-09-18T04:50:57;5.83;;;3.63;;
67869;SDS011;54673;52.262;6.830;2023-09-18T04:53:24;8.27;;;4.03;;
67869;SDS011;54673;52.262;6.830;2023-09-18T04:55:50;6.47;;;4.33;;
67869;SDS011;54673;52.262;6.830;2023-09-18T04:58:19;7.20;;;5.10;;
67869;SDS011;54673;52.262;6.830;2023-09-18T05:00:44;11.67;;;5.07;;
67869;SDS011;54673;52.262;6.830;2023-09-18T05:03:11;7.22;;;4.32;;
67869;SDS011;54673;52.262;6.830;2023-09-18T05:05:37;7.82;;;3.97;;
67869;SDS011;54673;52.262;6.830;2023-09-18T05:08:05;7.17;;;4.20;;
67869;SDS011;54673;52.262;6.830;2023-09-18T05:10:34;10.07;;;4.70;;
67869;SDS011;54673;52.262;6.830;2023-09-18T05:13:00;6.50;;;4.10;;
67869;SDS011;54673;52.262;6.830;2023-09-18T05:15:28;8.88;;;5.20;;
67869;SDS011;54673;52.262;6.830;2023-09-18T05:17:57;7.78;;;4.22;;
67869;SDS011;54673;52.262;6.830;2023-09-18T05:20:25;8.43;;;5.03;;
67869;SDS011;54673;52.262;6.830;2023-09-18T05:22:51;5.68;;;4.20;;
67869;SDS011;54673;52.262;6.830;2023-09-18T05:25:21;6.85;;;4.65;;
67869;SDS011;54673;52.262;6.830;2023-09-18T05:27:47;8.07;;;4.83;;
67869;SDS011;54673;52.262;6.830;2023-09-18T05:30:20;10.38;;;4.50;;
67869;SDS011;54673;52.262;6.830;2023-09-18T05:33:00;4.30;;;3.90;;
67869;SDS011;54673;52.262;6.830;2023-09-18T05:35:33;8.97;;;4.23;;
67869;SDS011;54673;52.262;6.830;2023-09-18T05:38:01;12.27;;;4.72;;
67869;SDS011;54673;52.262;6.830;2023-09-18T05:40:28;9.20;;;4.30;;
67869;SDS011;54673;52.262;6.830;2023-09-18T05:42:54;10.67;;;5.20;;
67869;SDS011;54673;52.262;6.830;2023-09-18T05:45:20;11.05;;;5.18;;
67869;SDS011;54673;52.262;6.830;2023-09-18T05:47:46;11.50;;;5.20;;
67869;SDS011;54673;52.262;6.830;2023-09-18T05:50:13;8.18;;;4.72;;
67869;SDS011;54673;52.262;6.830;2023-09-18T05:52:40;8.80;;;5.03;;
67869;SDS011;54673;52.262;6.830;2023-09-18T05:55:07;7.65;;;4.25;;
67869;SDS011;54673;52.262;6.830;2023-09-18T05:57:33;16.83;;;5.20;;
67869;SDS011;54673;52.262;6.830;2023-09-18T05:59:59;9.90;;;4.27;;
67869;SDS011;54673;52.262;6.830;2023-09-18T06:02:25;8.43;;;4.20;;
67869;SDS011;54673;52.262;6.830;2023-09-18T06:04:54;10.33;;;4.70;;
67869;SDS011;54673;52.262;6.830;2023-09-18T06:07:22;8.20;;;4.40;;
67869;SDS011;54673;52.262;6.830;2023-09-18T06:09:57;11.65;;;5.13;;
67869;SDS011;54673;52.262;6.830;2023-09-18T06:12:23;8.13;;;4.50;;
67869;SDS011;54673;52.262;6.830;2023-09-18T06:14:50;8.55;;;4.70;;
67869;SDS011;54673;52.262;6.830;2023-09-18T06:17:16;9.60;;;4.70;;
67869;SDS011;54673;52.262;6.830;2023-09-18T06:19:42;7.10;;;4.00;;
67869;SDS011;54673;52.262;6.830;2023-09-18T06:22:09;7.38;;;4.45;;
67869;SDS011;54673;52.262;6.830;2023-09-18T06:24:35;11.40;;;5.53;;
67869;SDS011;54673;52.262;6.830;2023-09-18T06:27:01;14.02;;;5.32;;
67869;SDS011;54673;52.262;6.830;2023-09-18T06:29:27;13.33;;;5.10;;
67869;SDS011;54673;52.262;6.830;2023-09-18T06:31:52;4.73;;;3.33;;
67869;SDS011;54673;52.262;6.830;2023-09-18T06:34:18;8.77;;;4.83;;
67869;SDS011;54673;52.262;6.830;2023-09-18T06:36:43;8.77;;;4.20;;
67869;SDS011;54673;52.262;6.830;2023-09-18T06:39:09;17.87;;;6.07;;
67869;SDS011;54673;52.262;6.830;2023-09-18T06:41:34;11.63;;;4.90;;
67869;SDS011;54673;52.262;6.830;2023-09-18T06:44:00;8.75;;;4.80;;
67869;SDS011;54673;52.262;6.830;2023-09-18T06:46:28;11.27;;;4.72;;
67869;SDS011;54673;52.262;6.830;2023-09-18T06:48:55;12.10;;;4.47;;
67869;SDS011;54673;52.262;6.830;2023-09-18T06:51:21;11.38;;;4.65;;
67869;SDS011;54673;52.262;6.830;2023-09-18T06:53:47;9.97;;;3.90;;
67869;SDS011;54673;52.262;6.830;2023-09-18T06:56:12;9.45;;;4.60;;
67869;SDS011;54673;52.262;6.830;2023-09-18T06:58:38;6.20;;;4.03;;
67869;SDS011;54673;52.262;6.830;2023-09-18T07:01:03;7.35;;;3.55;;
67869;SDS011;54673;52.262;6.830;2023-09-18T07:03:31;10.83;;;4.60;;
67869;SDS011;54673;52.262;6.830;2023-09-18T07:05:59;10.40;;;4.30;;
67869;SDS011;54673;52.262;6.830;2023-09-18T07:08:25;12.43;;;4.80;;
67869;SDS011;54673;52.262;6.830;2023-09-18T07:10:50;5.93;;;3.67;;
67869;SDS011;54673;52.262;6.830;2023-09-18T07:13:16;8.10;;;4.23;;
67869;SDS011;54673;52.262;6.830;2023-09-18T07:15:42;10.45;;;4.38;;
67869;SDS011;54673;52.262;6.830;2023-09-18T07:18:09;7.27;;;4.40;;
67869;SDS011;54673;52.262;6.830;2023-09-18T07:20:38;7.25;;;4.20;;
67869;SDS011;54673;52.262;6.830;2023-09-18T07:23:08;10.70;;;4.25;;
67869;SDS011;54673;52.262;6.830;2023-09-18T07:25:34;7.57;;;3.90;;
67869;SDS011;54673;52.262;6.830;2023-09-18T07:27:59;12.30;;;4.88;;
67869;SDS011;54673;52.262;6.830;2023-09-18T07:30:25;9.60;;;3.87;;
67869;SDS011;54673;52.262;6.830;2023-09-18T07:32:52;9.57;;;4.15;;
67869;SDS011;54673;52.262;6.830;2023-09-18T07:35:23;7.97;;;4.20;;
67869;SDS011;54673;52.262;6.830;2023-09-18T07:37:49;9.45;;;4.03;;
67869;SDS011;54673;52.262;6.830;2023-09-18T07:40:15;12.57;;;4.10;;
67869;SDS011;54673;52.262;6.830;2023-09-18T07:42:41;10.50;;;5.63;;
67869;SDS011;54673;52.262;6.830;2023-09-18T07:45:08;14.82;;;5.03;;
67869;SDS011;54673;52.262;6.830;2023-09-18T07:47:35;9.27;;;4.70;;
67869;SDS011;54673;52.262;6.830;2023-09-18T07:50:00;5.93;;;3.53;;
67869;SDS011;54673;52.262;6.830;2023-09-18T07:52:26;7.53;;;4.43;;
67869;SDS011;54673;52.262;6.830;2023-09-18T07:54:52;8.63;;;5.28;;
67869;SDS011;54673;52.262;6.830;2023-09-18T07:57:17;7.23;;;4.13;;
67869;SDS011;54673;52.262;6.830;2023-09-18T07:59:44;12.90;;;4.72;;
67869;SDS011;54673;52.262;6.830;2023-09-18T08:02:11;7.60;;;4.20;;
67869;SDS011;54673;52.262;6.830;2023-09-18T08:04:37;10.13;;;3.67;;
67869;SDS011;54673;52.262;6.830;2023-09-18T08:07:02;7.73;;;3.83;;
67869;SDS011;54673;52.262;6.830;2023-09-18T08:09:30;6.38;;;3.65;;
67869;SDS011;54673;52.262;6.830;2023-09-18T08:11:56;10.43;;;4.35;;
67869;SDS011;54673;52.262;6.830;2023-09-18T08:14:22;7.50;;;3.80;;
67869;SDS011;54673;52.262;6.830;2023-09-18T08:16:47;6.63;;;3.50;;
67869;SDS011;54673;52.262;6.830;2023-09-18T08:19:16;12.87;;;3.77;;
67869;SDS011;54673;52.262;6.830;2023-09-18T08:21:42;8.40;;;3.72;;
67869;SDS011;54673;52.262;6.830;2023-09-18T08:24:07;8.57;;;3.87;;
67869;SDS011;54673;52.262;6.830;2023-09-18T08:26:33;9.80;;;3.90;;
67869;SDS011;54673;52.262;6.830;2023-09-18T08:28:59;5.87;;;3.20;;
67869;SDS011;54673;52.262;6.830;2023-09-18T08:31:24;5.73;;;3.37;;
67869;SDS011;54673;52.262;6.830;2023-09-18T08:33:52;5.13;;;3.00;;
67869;SDS011;54673;52.262;6.830;2023-09-18T08:36:18;5.90;;;2.93;;
67869;SDS011;54673;52.262;6.830;2023-09-18T08:38:43;7.88;;;3.60;;
67869;SDS011;54673;52.262;6.830;2023-09-18T08:41:11;5.13;;;2.67;;
67869;SDS011;54673;52.262;6.830;2023-09-18T08:43:39;3.57;;;2.80;;
67869;SDS011;54673;52.262;6.830;2023-09-18T08:46:07;5.57;;;3.20;;
67869;SDS011;54673;52.262;6.830;2023-09-18T08:48:34;9.75;;;2.90;;
67869;SDS011;54673;52.262;6.830;2023-09-18T08:51:06;6.73;;;3.40;;
67869;SDS011;54673;52.262;6.830;2023-09-18T08:53:34;7.00;;;2.88;;
67869;SDS011;54673;52.262;6.830;2023-09-18T08:56:01;9.27;;;3.43;;
67869;SDS011;54673;52.262;6.830;2023-09-18T08:58:32;8.73;;;3.27;;
67869;SDS011;54673;52.262;6.830;2023-09-18T09:01:02;10.63;;;3.10;;
67869;SDS011;54673;52.262;6.830;2023-09-18T09:03:34;4.53;;;2.95;;
67869;SDS011;54673;52.262;6.830;2023-09-18T09:06:05;5.70;;;3.07;;
67869;SDS011;54673;52.262;6.830;2023-09-18T09:08:31;6.95;;;2.90;;
67869;SDS011;54673;52.262;6.830;2023-09-18T09:10:58;8.80;;;3.08;;
67869;SDS011;54673;52.262;6.830;2023-09-18T09:13:25;10.20;;;3.43;;
67869;SDS011;54673;52.262;6.830;2023-09-18T09:15:52;6.45;;;3.00;;
67869;SDS011;54673;52.262;6.830;2023-09-18T09:18:20;6.33;;;3.03;;
67869;SDS011;54673;52.262;6.830;2023-09-18T09:20:54;8.30;;;2.80;;
67869;SDS011;54673;52.262;6.830;2023-09-18T09:23:28;5.40;;;3.00;;
67869;SDS011;54673;52.262;6.830;2023-09-18T09:26:14;9.55;;;2.70;;
67869;SDS011;54673;52.262;6.830;2023-09-18T09:28:42;9.27;;;2.80;;
67869;SDS011;54673;52.262;6.830;2023-09-18T09:31:08;8.65;;;2.45;;
67869;SDS011;54673;52.262;6.830;2023-09-18T09:33:50;4.22;;;2.45;;
67869;SDS011;54673;52.262;6.830;2023-09-18T09:36:22;5.60;;;2.37;;
67869;SDS011;54673;52.262;6.830;2023-09-18T09:38:49;10.32;;;2.92;;
67869;SDS011;54673;52.262;6.830;2023-09-18T09:41:21;5.18;;;2.83;;
67869;SDS011;54673;52.262;6.830;2023-09-18T09:43:46;4.87;;;2.60;;
67869;SDS011;54673;52.262;6.830;2023-09-18T09:46:16;5.47;;;2.67;;
67869;SDS011;54673;52.262;6.830;2023-09-18T09:49:02;5.60;;;2.30;;
67869;SDS011;54673;52.262;6.830;2023-09-18T09:51:29;7.60;;;2.40;;
67869;SDS011;54673;52.262;6.830;2023-09-18T09:53:56;3.45;;;2.15;;
67869;SDS011;54673;52.262;6.830;2023-09-18T09:56:39;3.90;;;2.08;;
67869;SDS011;54673;52.262;6.830;2023-09-18T09:59:06;4.67;;;1.87;;
67869;SDS011;54673;52.262;6.830;2023-09-18T10:01:36;4.88;;;2.08;;
67869;SDS011;54673;52.262;6.830;2023-09-18T10:04:03;5.05;;;2.30;;
67869;SDS011;54673;52.262;6.830;2023-09-18T10:06:34;3.43;;;2.07;;
67869;SDS011;54673;52.262;6.830;2023-09-18T10:09:02;4.73;;;2.10;;
67869;SDS011;54673;52.262;6.830;2023-09-18T10:11:29;5.40;;;2.38;;
67869;SDS011;54673;52.262;6.830;2023-09-18T10:14:00;3.67;;;1.90;;
67869;SDS011;54673;52.262;6.830;2023-09-18T10:16:29;6.90;;;2.10;;
67869;SDS011;54673;52.262;6.830;2023-09-18T10:19:02;2.47;;;1.80;;
67869;SDS011;54673;52.262;6.830;2023-09-18T10:21:36;3.80;;;2.10;;
67869;SDS011;54673;52.262;6.830;2023-09-18T10:24:25;4.50;;;2.40;;
67869;SDS011;54673;52.262;6.830;2023-09-18T10:26:57;4.55;;;2.33;;
67869;SDS011;54673;52.262;6.830;2023-09-18T10:29:25;5.18;;;2.17;;
67869;SDS011;54673;52.262;6.830;2023-09-18T10:31:52;6.00;;;2.13;;
67869;SDS011;54673;52.262;6.830;2023-09-18T10:34:19;3.97;;;1.83;;
67869;SDS011;54673;52.262;6.830;2023-09-18T10:36:46;7.20;;;2.05;;
67869;SDS011;54673;52.262;6.830;2023-09-18T10:39:13;5.70;;;1.92;;
67869;SDS011;54673;52.262;6.830;2023-09-18T10:41:44;5.63;;;1.80;;
67869;SDS011;54673;52.262;6.830;2023-09-18T10:44:16;3.00;;;1.73;;
67869;SDS011;54673;52.262;6.830;2023-09-18T10:46:43;9.63;;;2.13;;
67869;SDS011;54673;52.262;6.830;2023-09-18T10:49:10;5.13;;;1.53;;
67869;SDS011;54673;52.262;6.830;2023-09-18T10:51:37;3.80;;;1.75;;
67869;SDS011;54673;52.262;6.830;2023-09-18T10:54:07;6.97;;;1.50;;
67869;SDS011;54673;52.262;6.830;2023-09-18T10:56:44;8.30;;;1.83;;
67869;SDS011;54673;52.262;6.830;2023-09-18T10:59:10;3.67;;;1.80;;
67869;SDS011;54673;52.262;6.830;2023-09-18T11:01:36;4.50;;;1.75;;
67869;SDS011;54673;52.262;6.830;2023-09-18T11:04:05;4.07;;;1.80;;
67869;SDS011;54673;52.262;6.830;2023-09-18T11:09:52;2.63;;;1.80;;
67869;SDS011;54673;52.262;6.830;2023-09-18T11:12:11;3.03;;;1.80;;
67869;SDS011;54673;52.262;6.830;2023-09-18T11:17:34;5.22;;;1.65;;
67869;SDS011;54673;52.262;6.830;2023-09-18T11:20:18;2.10;;;1.60;;
67869;SDS011;54673;52.262;6.830;2023-09-18T11:22:49;3.30;;;1.77;;
67869;SDS011;54673;52.262;6.830;2023-09-18T11:25:30;3.20;;;1.75;;
67869;SDS011;54673;52.262;6.830;2023-09-18T11:28:24;3.20;;;1.52;;
67869;SDS011;54673;52.262;6.830;2023-09-18T11:30:51;2.93;;;1.37;;
67869;SDS011;54673;52.262;6.830;2023-09-18T11:33:32;3.78;;;1.60;;
67869;SDS011;54673;52.262;6.830;2023-09-18T11:36:06;4.07;;;1.30;;
67869;SDS011;54673;52.262;6.830;2023-09-18T11:38:32;4.37;;;1.60;;
67869;SDS011;54673;52.262;6.830;2023-09-18T11:41:27;7.07;;;1.70;;
67869;SDS011;54673;52.262;6.830;2023-09-18T11:46:48;5.97;;;1.60;;
67869;SDS011;54673;52.262;6.830;2023-09-18T11:49:19;4.27;;;1.83;;
67869;SDS011;54673;52.262;6.830;2023-09-18T11:51:51;2.60;;;2.00;;
67869;SDS011;54673;52.262;6.830;2023-09-18T11:54:17;3.53;;;2.10;;
67869;SDS011;54673;52.262;6.830;2023-09-18T11:56:43;3.07;;;1.57;;
67869;SDS011;54673;52.262;6.830;2023-09-18T11:59:09;7.13;;;1.98;;
67869;SDS011;54673;52.262;6.830;2023-09-18T12:01:36;2.47;;;1.65;;
67869;SDS011;54673;52.262;6.830;2023-09-18T12:04:04;4.67;;;1.60;;
67869;SDS011;54673;52.262;6.830;2023-09-18T12:06:33;5.78;;;1.70;;
67869;SDS011;54673;52.262;6.830;2023-09-18T12:09:06;3.30;;;1.90;;
67869;SDS011;54673;52.262;6.830;2023-09-18T12:11:33;5.57;;;2.00;;
67869;SDS011;54673;52.262;6.830;2023-09-18T12:14:00;2.83;;;1.80;;
67869;SDS011;54673;52.262;6.830;2023-09-18T12:16:27;3.85;;;1.60;;
67869;SDS011;54673;52.262;6.830;2023-09-18T12:18:53;5.65;;;2.47;;
67869;SDS011;54673;52.262;6.830;2023-09-18T12:21:19;2.80;;;2.10;;
67869;SDS011;54673;52.262;6.830;2023-09-18T12:23:45;3.15;;;1.80;;
67869;SDS011;54673;52.262;6.830;2023-09-18T12:26:11;5.57;;;2.17;;
67869;SDS011;54673;52.262;6.830;2023-09-18T12:28:39;6.15;;;2.17;;
67869;SDS011;54673;52.262;6.830;2023-09-18T12:31:06;5.55;;;3.58;;
67869;SDS011;54673;52.262;6.830;2023-09-18T12:33:35;4.30;;;2.30;;
67869;SDS011;54673;52.262;6.830;2023-09-18T12:36:04;2.47;;;2.07;;
67869;SDS011;54673;52.262;6.830;2023-09-18T12:38:31;2.83;;;1.92;;
67869;SDS011;54673;52.262;6.830;2023-09-18T12:40:58;4.43;;;2.25;;
67869;SDS011;54673;52.262;6.830;2023-09-18T12:43:40;3.87;;;2.10;;
67869;SDS011;54673;52.262;6.830;2023-09-18T12:46:07;3.95;;;2.10;;
67869;SDS011;54673;52.262;6.830;2023-09-18T12:48:37;5.63;;;2.38;;
67869;SDS011;54673;52.262;6.830;2023-09-18T12:51:04;3.70;;;2.43;;
67869;SDS011;54673;52.262;6.830;2023-09-18T12:53:30;4.88;;;2.28;;
67869;SDS011;54673;52.262;6.830;2023-09-18T12:56:06;6.88;;;2.65;;
67869;SDS011;54673;52.262;6.830;2023-09-18T12:58:32;4.20;;;2.33;;
67869;SDS011;54673;52.262;6.830;2023-09-18T13:00:58;4.40;;;2.30;;
67869;SDS011;54673;52.262;6.830;2023-09-18T13:03:31;3.78;;;2.55;;
67869;SDS011;54673;52.262;6.830;2023-09-18T13:06:10;5.27;;;2.37;;
67869;SDS011;54673;52.262;6.830;2023-09-18T13:08:44;6.68;;;2.38;;
67869;SDS011;54673;52.262;6.830;2023-09-18T13:11:14;3.10;;;2.40;;
67869;SDS011;54673;52.262;6.830;2023-09-18T13:13:41;5.37;;;2.10;;
67869;SDS011;54673;52.262;6.830;2023-09-18T13:16:07;5.97;;;2.28;;
67869;SDS011;54673;52.262;6.830;2023-09-18T13:18:34;4.32;;;2.38;;
67869;SDS011;54673;52.262;6.830;2023-09-18T13:21:00;5.07;;;2.50;;
67869;SDS011;54673;52.262;6.830;2023-09-18T13:23:34;3.70;;;2.15;;
67869;SDS011;54673;52.262;6.830;2023-09-18T13:26:00;9.77;;;2.10;;
67869;SDS011;54673;52.262;6.830;2023-09-18T13:28:28;9.47;;;2.37;;
67869;SDS011;54673;52.262;6.830;2023-09-18T13:30:56;6.97;;;2.33;;
67869;SDS011;54673;52.262;6.830;2023-09-18T13:33:22;5.18;;;2.40;;
67869;SDS011;54673;52.262;6.830;2023-09-18T13:35:48;2.67;;;2.47;;
67869;SDS011;54673;52.262;6.830;2023-09-18T13:38:14;4.65;;;2.00;;
67869;SDS011;54673;52.262;6.830;2023-09-18T13:40:40;4.63;;;2.30;;
67869;SDS011;54673;52.262;6.830;2023-09-18T13:43:10;10.40;;;2.63;;
67869;SDS011;54673;52.262;6.830;2023-09-18T13:45:36;7.40;;;2.53;;
67869;SDS011;54673;52.262;6.830;2023-09-18T13:48:02;4.60;;;2.80;;
67869;SDS011;54673;52.262;6.830;2023-09-18T13:50:29;5.17;;;2.57;;
67869;SDS011;54673;52.262;6.830;2023-09-18T13:52:55;6.78;;;2.60;;
67869;SDS011;54673;52.262;6.830;2023-09-18T13:55:22;4.43;;;2.65;;
67869;SDS011;54673;52.262;6.830;2023-09-18T13:57:47;4.33;;;2.30;;
67869;SDS011;54673;52.262;6.830;2023-09-18T14:00:13;6.15;;;2.50;;
67869;SDS011;54673;52.262;6.830;2023-09-18T14:02:39;6.87;;;2.57;;
67869;SDS011;54673;52.262;6.830;2023-09-18T14:05:05;3.58;;;2.08;;
67869;SDS011;54673;52.262;6.830;2023-09-18T14:07:32;3.30;;;2.17;;
67869;SDS011;54673;52.262;6.830;2023-09-18T14:09:57;3.23;;;2.30;;
67869;SDS011;54673;52.262;6.830;2023-09-18T14:12:23;6.30;;;2.40;;
67869;SDS011;54673;52.262;6.830;2023-09-18T14:14:49;5.97;;;2.50;;
67869;SDS011;54673;52.262;6.830;2023-09-18T14:17:15;2.83;;;2.17;;
67869;SDS011;54673;52.262;6.830;2023-09-18T14:19:43;2.70;;;2.13;;
67869;SDS011;54673;52.262;6.830;2023-09-18T14:22:08;4.60;;;2.58;;
67869;SDS011;54673;52.262;6.830;2023-09-18T14:24:34;4.57;;;2.43;;
67869;SDS011;54673;52.262;6.830;2023-09-18T14:27:00;3.53;;;2.30;;
67869;SDS011;54673;52.262;6.830;2023-09-18T14:29:27;2.20;;;2.00;;
67869;SDS011;54673;52.262;6.830;2023-09-18T14:31:53;7.37;;;2.47;;
67869;SDS011;54673;52.262;6.830;2023-09-18T14:34:18;4.20;;;2.40;;
67869;SDS011;54673;52.262;6.830;2023-09-18T14:36:44;5.00;;;2.00;;
67869;SDS011;54673;52.262;6.830;2023-09-18T14:39:10;4.23;;;2.40;;
67869;SDS011;54673;52.262;6.830;2023-09-18T14:41:37;3.85;;;2.33;;
67869;SDS011;54673;52.262;6.830;2023-09-18T14:44:03;2.38;;;2.03;;
67869;SDS011;54673;52.262;6.830;2023-09-18T14:46:30;3.00;;;2.03;;
67869;SDS011;54673;52.262;6.830;2023-09-18T14:48:58;2.67;;;2.00;;
67869;SDS011;54673;52.262;6.830;2023-09-18T14:51:25;4.03;;;2.17;;
67869;SDS011;54673;52.262;6.830;2023-09-18T14:53:50;4.33;;;2.27;;
67869;SDS011;54673;52.262;6.830;2023-09-18T14:56:16;3.20;;;2.20;;